Time;durP1;ratioP1;P1;durP2;ratioP2;P2;SDS_P1;SDS_P2;PMS_P1;PMS_P2;Temp;Humidity;BMP_temperature;BMP_pressure;BME280_temperature;BME280_humidity;BME280_pressure;Samples;Min_cycle;Max_cycle;Signal;HPM_P1;HPM_P2
2021/01/03 00:02:05;;;;;;;25.05;14.35;;;;;;;10.04;100.00;101633.94;5115480;28;20139;-74
2021/01/03 00:04:51;;;;;;;29.25;15.63;;;;;;;9.95;100.00;101633.94;5115713;28;20016;-76
2021/01/03 00:07:37;;;;;;;30.92;15.60;;;;;;;10.03;100.00;101634.81;5116001;28;20481;-74
2021/01/03 00:10:24;;;;;;;23.77;14.05;;;;;;;9.83;100.00;101631.31;5115128;28;20027;-74
2021/01/03 00:13:10;;;;;;;27.73;15.20;;;;;;;9.73;100.00;101632.22;5115541;28;20031;-74
2021/01/03 00:15:55;;;;;;;26.63;14.95;;;;;;;9.93;100.00;101628.69;5100241;28;20028;-74
2021/01/03 00:18:41;;;;;;;31.08;17.65;;;;;;;9.60;100.00;101614.72;5115752;28;20042;-75
2021/01/03 00:21:27;;;;;;;26.88;15.85;;;;;;;9.01;100.00;101611.16;5099999;28;20062;-74
2021/01/03 00:24:13;;;;;;;23.02;13.43;;;;;;;9.12;100.00;101610.31;5115340;28;20031;-74
2021/01/03 00:26:58;;;;;;;21.27;10.25;;;;;;;9.06;100.00;101612.91;5115573;28;20027;-74
2021/01/03 00:29:44;;;;;;;20.95;10.02;;;;;;;9.49;100.00;101606.88;5115685;28;20483;-74
2021/01/03 00:32:30;;;;;;;21.45;10.27;;;;;;;9.67;100.00;101604.28;5115563;28;20020;-75
2021/01/03 00:35:21;;;;;;;20.77;9.20;;;;;;;9.62;100.00;101598.16;5100030;28;20039;-74
2021/01/03 00:38:10;;;;;;;20.40;9.15;;;;;;;9.36;100.00;101596.41;5116011;28;20464;-75
2021/01/03 00:40:56;;;;;;;25.88;9.43;;;;;;;9.71;100.00;101589.44;5115958;28;20069;-75
2021/01/03 00:43:42;;;;;;;18.92;9.32;;;;;;;9.78;100.00;101586.81;5100437;28;20389;-74
2021/01/03 00:46:28;;;;;;;19.73;8.63;;;;;;;9.74;100.00;101585.06;5115745;28;20046;-75
2021/01/03 00:49:14;;;;;;;19.00;8.30;;;;;;;9.71;100.00;101578.97;5115881;28;20114;-76
2021/01/03 00:52:00;;;;;;;16.83;7.93;;;;;;;9.67;100.00;101585.09;5115959;28;20020;-74
2021/01/03 00:54:45;;;;;;;15.73;7.88;;;;;;;9.72;100.00;101578.09;5114059;28;20023;-74
2021/01/03 00:57:31;;;;;;;21.83;8.43;;;;;;;10.03;100.00;101578.09;5114959;28;20038;-74
2021/01/03 01:00:21;;;;;;;17.20;7.70;;;;;;;10.06;100.00;101582.47;5100740;28;20027;-74
2021/01/03 01:03:07;;;;;;;16.67;7.18;;;;;;;9.92;100.00;101576.34;5100991;28;20457;-75
2021/01/03 01:05:52;;;;;;;17.58;7.15;;;;;;;9.92;100.00;101574.59;5115059;28;20027;-75
2021/01/03 01:08:39;;;;;;;19.08;7.43;;;;;;;10.03;100.00;101574.59;5115032;28;20035;-74
2021/01/03 01:11:25;;;;;;;17.80;6.97;;;;;;;9.74;100.00;101577.22;5114919;28;20354;-75
2021/01/03 01:14:11;;;;;;;14.40;7.50;;;;;;;9.81;100.00;101573.75;5114770;28;20479;-74
2021/01/03 01:16:57;;;;;;;19.40;7.63;;;;;;;9.81;100.00;101578.97;5100914;28;20032;-73
2021/01/03 01:19:42;;;;;;;16.00;7.93;;;;;;;9.90;100.00;101580.72;5115253;28;20089;-75
2021/01/03 01:22:28;;;;;;;16.70;8.13;;;;;;;9.85;100.00;101575.47;5115564;28;20481;-74
2021/01/03 01:25:16;;;;;;;16.95;8.50;;;;;;;9.75;100.00;101576.38;5100194;28;20364;-74
2021/01/03 01:28:02;;;;;;;18.33;8.90;;;;;;;9.63;100.00;101576.38;5099242;28;20016;-74
2021/01/03 01:30:48;;;;;;;16.23;9.02;;;;;;;9.70;100.00;101565.00;5115134;28;20084;-74
2021/01/03 01:33:34;;;;;;;19.75;9.55;;;;;;;9.45;100.00;101555.44;5100884;28;20038;-74
2021/01/03 01:36:19;;;;;;;15.18;8.63;;;;;;;9.41;100.00;101565.91;5113737;28;20027;-74
2021/01/03 01:39:05;;;;;;;16.25;8.95;;;;;;;9.30;100.00;101559.78;5114857;28;20020;-75
2021/01/03 01:41:51;;;;;;;19.13;9.90;;;;;;;9.53;100.00;101550.22;5098574;28;20031;-73
2021/01/03 01:44:37;;;;;;;19.17;9.15;;;;;;;9.61;100.00;101551.09;5114601;28;20023;-74
2021/01/03 01:47:27;;;;;;;21.05;9.75;;;;;;;9.86;100.00;101551.03;5114551;28;20027;-74
2021/01/03 01:50:20;;;;;;;19.20;9.18;;;;;;;9.55;100.00;101538.00;5114292;28;20038;-75
2021/01/03 01:53:08;;;;;;;23.33;9.77;;;;;;;9.47;100.00;101532.78;5101146;28;20457;-74
2021/01/03 01:56:09;;;;;;;19.27;9.15;;;;;;;9.57;100.00;101537.13;5119061;28;20039;-74
2021/01/03 01:59:12;;;;;;;20.27;11.00;;;;;;;9.33;100.00;101534.50;5118179;28;20050;-74
2021/01/03 02:02:33;;;;;;;19.25;9.45;;;;;;;9.28;100.00;101522.28;5118113;28;20020;-74
2021/01/03 02:05:28;;;;;;;17.70;9.73;;;;;;;9.32;100.00;101522.31;5094041;28;20024;-74
2021/01/03 02:08:18;;;;;;;23.50;9.88;;;;;;;9.56;100.00;101516.19;5118357;28;20027;-73
2021/01/03 02:11:08;;;;;;;21.17;9.65;;;;;;;9.47;100.00;101521.44;5118278;28;20100;-74
2021/01/03 02:13:56;;;;;;;23.40;9.95;;;;;;;9.56;100.00;101511.84;5118187;28;20027;-74
2021/01/03 02:16:42;;;;;;;23.75;9.27;;;;;;;9.29;100.00;101509.22;5118929;28;20209;-74
2021/01/03 02:19:33;;;;;;;18.90;8.60;;;;;;;9.41;100.00;101508.38;5119301;27;20368;-74
2021/01/03 02:22:44;;;;;;;17.88;8.52;;;;;;;9.91;100.00;101503.94;5117280;28;20075;-73
2021/01/03 02:25:30;;;;;;;17.98;8.50;;;;;;;9.64;100.00;101498.75;5118568;28;20441;-74
2021/01/03 02:28:22;;;;;;;17.52;8.88;;;;;;;9.63;100.00;101495.28;5118128;28;20395;-74
2021/01/03 02:31:12;;;;;;;18.75;8.40;;;;;;;9.68;100.00;101484.78;5118460;28;20023;-74
2021/01/03 02:34:00;;;;;;;19.17;8.80;;;;;;;9.48;100.00;101497.00;5118261;28;20392;-74
2021/01/03 02:36:57;;;;;;;17.05;8.98;;;;;;;9.63;100.00;101482.19;5117730;28;20023;-75
2021/01/03 02:39:48;;;;;;;17.20;9.07;;;;;;;9.54;100.00;101481.34;5104879;27;20023;-73
2021/01/03 02:42:37;;;;;;;18.33;9.07;;;;;;;9.36;100.00;101476.09;5118447;28;20110;-73
2021/01/03 02:45:25;;;;;;;16.70;8.52;;;;;;;9.59;100.00;101475.22;5116820;28;20027;-73
2021/01/03 02:48:19;;;;;;;16.27;8.40;;;;;;;9.35;100.00;101467.41;5118429;28;20027;-74
2021/01/03 02:51:05;;;;;;;18.30;9.73;;;;;;;9.51;100.00;101465.63;5118009;28;20043;-75
2021/01/03 02:53:50;;;;;;;15.18;8.45;;;;;;;9.37;100.00;101464.78;5117045;28;20032;-74
2021/01/03 02:56:37;;;;;;;19.48;8.60;;;;;;;9.70;100.00;101454.28;5117633;28;20023;-74
2021/01/03 02:59:23;;;;;;;15.63;7.43;;;;;;;9.53;100.00;101461.28;5101850;28;20080;-75
2021/01/03 03:02:09;;;;;;;18.10;7.80;;;;;;;9.77;100.00;101448.16;5103990;28;20023;-75
2021/01/03 03:04:55;;;;;;;17.48;7.05;;;;;;;9.77;100.00;101446.38;5118694;28;20027;-74
2021/01/03 03:07:41;;;;;;;16.67;7.43;;;;;;;9.69;100.00;101445.53;5117213;28;20110;-74
2021/01/03 03:10:27;;;;;;;15.77;7.53;;;;;;;10.01;100.00;101445.47;5117041;28;20383;-74
2021/01/03 03:13:12;;;;;;;16.63;7.22;;;;;;;9.98;100.00;101448.94;5117710;28;20039;-75
2021/01/03 03:15:58;;;;;;;16.75;7.32;;;;;;;10.23;100.00;101448.88;5116724;28;20035;-74
2021/01/03 03:18:44;;;;;;;17.85;7.25;;;;;;;9.70;100.00;101451.66;5116559;28;20051;-75
2021/01/03 03:21:30;;;;;;;15.88;7.47;;;;;;;9.97;100.00;101452.44;5102257;28;20054;-74
2021/01/03 03:24:16;;;;;;;16.25;7.47;;;;;;;10.10;100.00;101454.16;5117174;28;20034;-74
2021/01/03 03:27:03;;;;;;;14.43;7.15;;;;;;;9.87;100.00;101447.25;5116971;28;20038;-73
2021/01/03 03:29:48;;;;;;;15.75;7.25;;;;;;;9.98;100.00;101441.06;5103205;28;20031;-74
2021/01/03 03:32:35;;;;;;;14.45;7.18;;;;;;;10.21;100.00;101446.28;5117512;28;20023;-75
2021/01/03 03:35:29;;;;;;;18.02;7.13;;;;;;;10.02;100.00;101432.34;5115809;28;20020;-75
2021/01/03 03:38:15;;;;;;;18.40;7.28;;;;;;;10.55;100.00;101439.97;5103615;27;20019;-74
2021/01/03 03:41:01;;;;;;;16.23;7.60;;;;;;;9.94;100.00;101448.97;5116099;28;20023;-75
2021/01/03 03:43:48;;;;;;;16.33;7.07;;;;;;;10.04;100.00;101446.31;5116507;28;20035;-75
2021/01/03 03:46:34;;;;;;;14.25;7.20;;;;;;;9.95;100.00;101441.13;5116462;28;20031;-75
2021/01/03 03:49:20;;;;;;;12.38;6.25;;;;;;;10.10;100.00;101434.97;5102251;28;20020;-74
2021/01/03 03:52:06;;;;;;;15.80;7.55;;;;;;;10.14;100.00;101439.31;5117151;28;20020;-74
2021/01/03 03:54:52;;;;;;;14.23;6.80;;;;;;;10.24;100.00;101437.53;5116201;28;20065;-75
2021/01/03 03:57:38;;;;;;;11.55;6.38;;;;;;;10.43;100.00;101439.16;5116438;28;20024;-75
2021/01/03 04:00:25;;;;;;;17.15;6.15;;;;;;;10.34;100.00;101437.50;5117353;28;20019;-75
2021/01/03 04:03:10;;;;;;;14.27;6.40;;;;;;;10.27;100.00;101424.41;5116563;28;20053;-74
2021/01/03 04:05:56;;;;;;;11.38;6.30;;;;;;;10.67;100.00;101428.53;5101750;28;20020;-74
2021/01/03 04:08:42;;;;;;;12.80;6.75;;;;;;;10.69;100.00;101429.41;5115726;28;20392;-74
2021/01/03 04:11:28;;;;;;;15.07;6.95;;;;;;;10.03;100.00;101417.50;5101743;28;20342;-74
2021/01/03 04:14:16;;;;;;;18.65;6.80;;;;;;;10.19;100.00;101421.84;5101573;28;20027;-74
2021/01/03 04:17:03;;;;;;;9.98;6.05;;;;;;;10.46;100.00;101429.56;5100583;28;20099;-74
2021/01/03 04:19:49;;;;;;;16.90;7.00;;;;;;;10.46;100.00;101440.03;5115821;28;20031;-75
2021/01/03 04:22:34;;;;;;;11.80;6.30;;;;;;;10.24;100.00;101437.53;5115761;28;20378;-74
2021/01/03 04:25:21;;;;;;;12.32;6.32;;;;;;;10.51;100.00;101434.75;5115885;28;20054;-73
2021/01/03 04:28:07;;;;;;;16.67;6.55;;;;;;;10.64;100.00;101423.34;5116594;28;20080;-74
2021/01/03 04:30:52;;;;;;;13.68;6.97;;;;;;;10.39;100.00;101430.47;5114845;28;20376;-74
2021/01/03 04:33:41;;;;;;;16.35;6.38;;;;;;;10.57;100.00;101432.13;5115824;28;20027;-74
2021/01/03 04:36:26;;;;;;;15.60;5.97;;;;;;;10.64;100.00;101425.97;5115602;28;20405;-74
2021/01/03 04:39:12;;;;;;;18.10;6.47;;;;;;;10.02;100.00;101431.50;5116170;28;20034;-74
2021/01/03 04:42:07;;;;;;;15.60;6.68;;;;;;;10.30;100.00;101438.38;5115824;28;20035;-74
2021/01/03 04:44:59;;;;;;;13.45;6.40;;;;;;;10.37;100.00;101442.69;5102272;27;20026;-74
2021/01/03 04:47:57;;;;;;;17.63;7.10;;;;;;;10.27;100.00;101440.13;5116094;28;20020;-74
2021/01/03 04:50:42;;;;;;;20.60;7.35;;;;;;;10.36;100.00;101450.59;5116078;28;20020;-74
2021/01/03 04:53:38;;;;;;;16.30;6.88;;;;;;;10.42;100.00;101443.56;5114589;28;20464;-74
2021/01/03 04:56:47;;;;;;;15.57;6.68;;;;;;;10.25;100.00;101442.78;5114094;28;20043;-74
2021/01/03 04:59:49;;;;;;;16.83;7.35;;;;;;;10.49;100.00;101444.41;5101476;28;20015;-74
2021/01/03 05:02:59;;;;;;;15.20;7.95;;;;;;;10.50;100.00;101440.88;5102046;28;20023;-75
2021/01/03 05:05:52;;;;;;;14.57;7.78;;;;;;;10.23;100.00;101439.28;5115662;28;20027;-74
2021/01/03 05:08:48;;;;;;;17.23;7.00;;;;;;;10.31;100.00;101447.09;5115551;28;20028;-74
2021/01/03 05:12:15;;;;;;;16.45;7.63;;;;;;;10.12;100.00;101440.22;5099832;28;20031;-73
2021/01/03 05:15:10;;;;;;;22.27;7.55;;;;;;;10.41;100.00;101441.78;5095724;28;20028;-74
2021/01/03 05:17:56;;;;;;;16.30;7.40;;;;;;;10.58;100.00;101452.19;5115159;28;20421;-75
2021/01/03 05:20:52;;;;;;;15.90;7.22;;;;;;;10.25;100.00;101452.38;5114980;28;20024;-75
2021/01/03 05:23:56;;;;;;;15.48;7.65;;;;;;;10.36;100.00;101446.19;5116653;27;20051;-74
2021/01/03 05:26:42;;;;;;;20.95;7.93;;;;;;;10.67;100.00;101447.78;5114869;28;20020;-74
2021/01/03 05:29:30;;;;;;;18.27;8.57;;;;;;;10.76;100.00;101465.19;5114771;28;20039;-74
2021/01/03 05:32:29;;;;;;;24.58;11.25;;;;;;;10.77;100.00;101449.44;5099048;28;20102;-74
2021/01/03 05:35:21;;;;;;;26.27;12.48;;;;;;;10.23;100.00;101459.34;5113204;28;20110;-74
2021/01/03 05:38:09;;;;;;;27.50;13.35;;;;;;;10.29;100.00;101469.81;5101187;28;20364;-74
2021/01/03 05:41:08;;;;;;;25.20;12.90;;;;;;;10.14;100.00;101455.03;5114763;28;20167;-74
2021/01/03 05:44:07;;;;;;;22.83;12.20;;;;;;;10.40;100.00;101458.41;5113776;28;20024;-74
2021/01/03 05:47:22;;;;;;;24.73;13.38;;;;;;;10.27;100.00;101459.34;5099195;28;20020;-74
2021/01/03 05:50:32;;;;;;;21.33;11.45;;;;;;;10.45;100.00;101455.75;5113910;28;20031;-73
2021/01/03 05:53:27;;;;;;;19.88;10.80;;;;;;;10.68;100.00;101449.50;5100732;28;20062;-74
2021/01/03 05:56:21;;;;;;;19.00;9.80;;;;;;;10.39;100.00;101450.53;5114812;28;20035;-73
2021/01/03 05:59:13;;;;;;;18.58;9.23;;;;;;;10.45;100.00;101451.38;5114944;28;20088;-75
2021/01/03 06:02:11;;;;;;;23.02;10.13;;;;;;;10.46;100.00;101454.88;5114052;28;20020;-74
2021/01/03 06:05:07;;;;;;;13.80;8.85;;;;;;;10.37;100.00;101457.56;5113709;28;20509;-75
2021/01/03 06:08:02;;;;;;;17.25;10.77;;;;;;;10.40;100.00;101460.16;5114712;28;20092;-75
2021/01/03 06:10:49;;;;;;;18.10;9.75;;;;;;;10.50;100.00;101459.22;5114432;28;20020;-74
2021/01/03 06:13:46;;;;;;;16.75;9.80;;;;;;;10.79;100.00;101471.28;5114198;28;20024;-75
2021/01/03 06:16:46;;;;;;;20.58;9.90;;;;;;;10.66;100.00;101464.38;5114798;28;20039;-74
2021/01/03 06:19:45;;;;;;;18.98;10.50;;;;;;;10.21;100.00;101464.63;5114100;28;20096;-74
2021/01/03 06:22:36;;;;;;;18.55;9.88;;;;;;;10.56;100.00;101467.06;5114033;28;20393;-75
2021/01/03 06:25:41;;;;;;;16.23;10.52;;;;;;;10.78;100.00;101471.28;5112730;28;20084;-74
2021/01/03 06:28:53;;;;;;;20.75;11.13;;;;;;;10.72;100.00;101471.34;5099277;28;20070;-75
2021/01/03 06:31:42;;;;;;;22.42;12.13;;;;;;;10.94;100.00;101476.44;5113889;28;20035;-75
2021/01/03 06:34:38;;;;;;;22.88;10.68;;;;;;;11.03;100.00;101475.47;5114099;28;20062;-75
2021/01/03 06:37:34;;;;;;;21.52;10.57;;;;;;;10.85;100.00;101470.38;5114101;28;20177;-75
2021/01/03 06:40:30;;;;;;;18.65;10.90;;;;;;;11.02;100.00;101474.63;5115954;28;20027;-75
2021/01/03 06:43:41;;;;;;;24.85;10.32;;;;;;;11.41;100.00;101471.66;5102080;28;20467;-75
2021/01/03 06:46:51;;;;;;;21.52;12.10;;;;;;;11.56;100.00;101479.41;5117907;28;20040;-74
2021/01/03 06:49:46;;;;;;;23.35;12.40;;;;;;;11.16;100.00;101480.63;5117151;28;20042;-75
2021/01/03 06:53:00;;;;;;;22.10;12.23;;;;;;;11.24;100.00;101484.06;5117851;28;20016;-74
2021/01/03 06:55:58;;;;;;;25.90;11.95;;;;;;;11.13;100.00;101482.41;5099173;28;20028;-74
2021/01/03 06:59:02;;;;;;;23.38;11.65;;;;;;;11.51;100.00;101489.09;5118014;28;20042;-74
2021/01/03 07:01:48;;;;;;;18.25;10.93;;;;;;;11.40;100.00;101484.78;5117347;28;20030;-76
2021/01/03 07:04:38;;;;;;;23.52;11.65;;;;;;;11.58;100.00;101479.41;5103209;28;20081;-76
2021/01/03 07:07:27;;;;;;;18.40;10.30;;;;;;;11.57;100.00;101473.25;5116982;28;20027;-76
2021/01/03 07:10:29;;;;;;;19.15;9.23;;;;;;;11.12;100.00;101470.16;5102639;28;20103;-74
2021/01/03 07:13:40;;;;;;;22.88;11.48;;;;;;;11.26;100.00;101470.94;5118253;27;20073;-76
2021/01/03 07:16:44;;;;;;;18.75;10.55;;;;;;;11.82;100.00;101481.81;5102131;28;20088;-76
2021/01/03 07:19:30;;;;;;;20.73;10.82;;;;;;;11.94;100.00;101487.78;5116901;28;20110;-74
2021/01/03 07:22:23;;;;;;;22.85;10.25;;;;;;;11.89;100.00;101484.34;5101703;28;20058;-75
2021/01/03 07:25:24;;;;;;;20.00;9.27;;;;;;;11.43;100.00;101475.16;5101697;28;20438;-75
2021/01/03 07:28:18;;;;;;;47.28;23.67;;;;;;;11.42;100.00;101478.69;5117693;28;20031;-73
2021/01/03 07:31:30;;;;;;;20.95;9.93;;;;;;;11.87;100.00;101480.00;5116161;28;20023;-75
2021/01/03 07:34:23;;;;;;;19.90;9.27;;;;;;;11.17;100.00;101481.50;5102354;28;20020;-74
2021/01/03 07:37:12;;;;;;;21.27;10.27;;;;;;;11.31;100.00;101488.38;5102466;28;20103;-74
2021/01/03 07:40:12;;;;;;;24.77;10.85;;;;;;;11.51;100.00;101480.31;5117350;28;20114;-75
2021/01/03 07:43:01;;;;;;;19.23;11.75;;;;;;;11.51;100.00;101473.34;5116630;28;20073;-74
2021/01/03 07:45:48;;;;;;;22.40;11.80;;;;;;;11.30;100.00;101473.53;5116174;28;20073;-74
2021/01/03 07:48:35;;;;;;;23.23;11.18;;;;;;;10.86;100.00;101467.75;5101273;28;20031;-75
2021/01/03 07:51:42;;;;;;;28.33;10.73;;;;;;;10.70;100.00;101466.09;5115464;28;20034;-75
2021/01/03 07:54:29;;;;;;;23.02;11.32;;;;;;;11.17;100.00;101471.88;5117647;27;20031;-74
2021/01/03 07:57:14;;;;;;;18.63;10.07;;;;;;;10.72;100.00;101466.94;5116143;28;20024;-74
2021/01/03 08:00:00;;;;;;;18.63;10.00;;;;;;;10.84;100.00;101469.50;5116170;28;20024;-73
2021/01/03 08:02:46;;;;;;;20.13;9.38;;;;;;;10.71;100.00;101473.09;5116225;28;20441;-74
2021/01/03 08:05:34;;;;;;;18.40;10.07;;;;;;;10.62;100.00;101465.28;5116337;28;20020;-74
2021/01/03 08:08:24;;;;;;;19.70;10.25;;;;;;;10.89;100.00;101465.09;5115727;28;20085;-75
2021/01/03 08:11:22;;;;;;;20.85;11.50;;;;;;;11.03;100.00;101455.38;5102192;28;20085;-75
2021/01/03 08:14:25;;;;;;;22.73;11.27;;;;;;;10.87;100.00;101452.88;5100300;28;20028;-74
2021/01/03 08:17:28;;;;;;;23.63;10.75;;;;;;;11.15;100.00;101450.03;5115294;28;20031;-75
2021/01/03 08:20:23;;;;;;;21.83;9.48;;;;;;;10.88;100.00;101444.16;5115738;28;20015;-74
2021/01/03 08:23:22;;;;;;;26.27;9.98;;;;;;;10.93;100.00;101444.97;5100798;28;20128;-74
2021/01/03 08:26:25;;;;;;;23.17;10.85;;;;;;;10.91;100.00;101444.97;5115483;28;20027;-74
2021/01/03 08:29:38;;;;;;;20.42;11.48;;;;;;;10.92;100.00;101445.84;5115673;28;20096;-74
2021/01/03 08:32:30;;;;;;;23.50;11.57;;;;;;;11.06;100.00;101439.63;5117228;27;20038;-74
2021/01/03 08:35:31;;;;;;;22.30;11.88;;;;;;;11.22;100.00;101449.13;5115559;28;20364;-73
2021/01/03 08:38:27;;;;;;;25.17;12.35;;;;;;;11.34;100.00;101433.28;5115208;28;20027;-74
2021/01/03 08:41:22;;;;;;;25.02;12.32;;;;;;;11.31;100.00;101429.78;5115483;28;20495;-74
2021/01/03 08:44:08;;;;;;;20.55;11.40;;;;;;;11.41;100.00;101424.44;5100130;28;20031;-74
2021/01/03 08:47:09;;;;;;;23.80;11.88;;;;;;;11.18;100.00;101421.19;5115028;28;20070;-74
2021/01/03 08:50:15;;;;;;;22.52;10.80;;;;;;;11.44;100.00;101421.78;5114728;28;20027;-74
2021/01/03 08:53:09;;;;;;;22.58;10.63;;;;;;;11.35;100.00;101419.25;5115401;28;20516;-75
2021/01/03 08:56:09;;;;;;;22.45;10.95;;;;;;;11.67;100.00;101411.09;5114630;28;20024;-74
2021/01/03 08:58:55;;;;;;;23.70;11.45;;;;;;;11.70;100.00;101405.81;5115302;28;20042;-75
2021/01/03 09:01:41;;;;;;;30.15;11.68;;;;;;;12.00;100.00;101394.94;5115013;28;20035;-75
2021/01/03 09:04:28;;;;;;;26.23;12.68;;;;;;;11.82;100.00;101398.66;5115662;28;20111;-74
2021/01/03 09:07:14;;;;;;;22.15;11.73;;;;;;;11.77;100.00;101391.75;5114841;28;20419;-75
2021/01/03 09:10:01;;;;;;;18.92;10.05;;;;;;;11.80;100.00;101395.19;5115357;28;20023;-75
2021/01/03 09:12:48;;;;;;;25.77;12.18;;;;;;;11.87;100.00;101390.72;5115616;28;20027;-74
2021/01/03 09:15:37;;;;;;;24.52;11.98;;;;;;;11.95;100.00;101397.63;5116138;28;20069;-74
2021/01/03 09:18:35;;;;;;;22.20;11.98;;;;;;;11.74;100.00;101392.59;5114443;28;20069;-75
2021/01/03 09:21:21;;;;;;;21.90;12.32;;;;;;;12.29;100.00;101393.66;5114585;28;20104;-75
2021/01/03 09:24:07;;;;;;;24.17;11.60;;;;;;;12.24;100.00;101394.63;5114053;28;20023;-76
2021/01/03 09:26:55;;;;;;;23.10;11.40;;;;;;;12.37;100.00;101386.53;5113728;28;20034;-76
2021/01/03 09:29:41;;;;;;;23.58;12.32;;;;;;;12.44;100.00;101387.31;5114082;28;20023;-75
2021/01/03 09:32:30;;;;;;;23.25;12.70;;;;;;;12.53;100.00;101379.28;5114667;28;20084;-75
2021/01/03 09:35:33;;;;;;;24.42;13.05;;;;;;;12.64;100.00;101378.25;5085969;28;20019;-75
2021/01/03 09:38:34;;;;;;;22.33;12.45;;;;;;;12.38;100.00;101369.88;5099169;28;20484;-74
2021/01/03 09:41:23;;;;;;;26.10;12.05;;;;;;;12.64;100.00;101375.63;5114794;28;20101;-75
2021/01/03 09:44:27;;;;;;;23.00;12.48;;;;;;;13.04;100.00;101365.38;5114251;28;20027;-75
2021/01/03 09:47:14;;;;;;;25.38;12.80;;;;;;;12.90;100.00;101369.97;5114476;28;20028;-76
2021/01/03 09:50:23;;;;;;;21.90;11.70;;;;;;;12.90;100.00;101365.56;5114261;28;20043;-75
2021/01/03 09:53:21;;;;;;;25.10;13.30;;;;;;;13.12;100.00;101360.84;5113664;28;20173;-74
2021/01/03 09:56:07;;;;;;;23.60;13.75;;;;;;;13.33;100.00;101358.69;5098450;28;20027;-75
2021/01/03 09:58:52;;;;;;;23.58;14.40;;;;;;;13.47;100.00;101361.91;5114189;28;20045;-74
2021/01/03 10:01:38;;;;;;;29.52;14.02;;;;;;;13.05;100.00;101357.44;5114363;28;20122;-74
2021/01/03 10:04:40;;;;;;;24.27;13.10;;;;;;;13.04;100.00;101354.84;5097978;28;20338;-74
2021/01/03 10:07:28;;;;;;;25.83;11.82;;;;;;;13.16;100.00;101346.72;5113469;28;20034;-73
2021/01/03 10:10:13;;;;;;;22.00;11.57;;;;;;;13.08;100.00;101357.41;5099381;28;20104;-75
2021/01/03 10:13:07;;;;;;;20.83;11.80;;;;;;;13.27;100.00;101348.25;5113844;28;20114;-75
2021/01/03 10:15:53;;;;;;;21.13;11.63;;;;;;;13.94;100.00;101348.69;5117387;28;20024;-75
2021/01/03 10:18:39;;;;;;;23.55;11.82;;;;;;;14.06;100.00;101339.63;5102434;28;20047;-75
2021/01/03 10:21:33;;;;;;;21.63;12.45;;;;;;;13.68;100.00;101329.03;5118979;28;20058;-75
2021/01/03 10:24:24;;;;;;;18.77;12.05;;;;;;;13.56;100.00;101327.53;5117028;28;20096;-75
2021/01/03 10:27:13;;;;;;;24.52;11.82;;;;;;;13.37;100.00;101327.91;5118047;28;20103;-74
2021/01/03 10:29:59;;;;;;;21.90;11.48;;;;;;;13.95;100.00;101326.69;5117316;28;20066;-75
2021/01/03 10:32:45;;;;;;;20.85;11.20;;;;;;;13.56;100.00;101322.28;5119460;27;20023;-76
2021/01/03 10:35:30;;;;;;;27.15;12.55;;;;;;;13.92;100.00;101318.88;5102435;28;20027;-76
2021/01/03 10:38:16;;;;;;;20.88;11.73;;;;;;;14.13;100.00;101313.13;5117994;28;20038;-75
2021/01/03 10:41:02;;;;;;;23.10;13.02;;;;;;;14.01;100.00;101316.03;5117866;28;20361;-75
2021/01/03 10:43:47;;;;;;;21.55;10.90;;;;;;;14.05;100.00;101308.91;5103705;28;20457;-75
2021/01/03 10:46:34;;;;;;;19.85;10.93;;;;;;;14.28;100.00;101311.94;5117727;28;20015;-74
2021/01/03 10:49:20;;;;;;;17.13;10.43;;;;;;;13.96;100.00;101307.38;5118083;28;20020;-75
2021/01/03 10:52:06;;;;;;;22.73;11.18;;;;;;;14.60;100.00;101307.63;5102619;28;20034;-75
2021/01/03 10:54:51;;;;;;;26.00;11.55;;;;;;;14.33;100.00;101313.56;5102520;28;20024;-75
2021/01/03 10:57:37;;;;;;;18.67;10.85;;;;;;;14.10;100.00;101307.03;5117826;28;20031;-75
2021/01/03 11:00:24;;;;;;;25.55;12.15;;;;;;;14.26;100.00;101300.56;5116818;28;20028;-75
2021/01/03 11:03:10;;;;;;;25.38;11.30;;;;;;;13.95;100.00;101297.72;5118074;28;20476;-75
2021/01/03 11:05:56;;;;;;;26.50;11.95;;;;;;;13.95;100.00;101299.50;5105156;28;20031;-76
2021/01/03 11:08:42;;;;;;;23.02;11.02;;;;;;;14.60;100.00;101301.50;5103492;28;20027;-75
2021/01/03 11:11:27;;;;;;;22.02;12.15;;;;;;;14.37;100.00;101304.69;5116405;28;20035;-75
2021/01/03 11:14:14;;;;;;;22.88;11.13;;;;;;;14.46;100.00;101291.28;5116964;28;20035;-75
2021/01/03 11:17:02;;;;;;;22.73;10.75;;;;;;;14.83;100.00;101289.47;5116443;28;20024;-75
2021/01/03 11:19:48;;;;;;;24.23;12.32;;;;;;;14.79;100.00;101290.44;5116306;28;20520;-75
2021/01/03 11:22:33;;;;;;;23.05;10.77;;;;;;;14.54;100.00;101289.31;5116601;28;20069;-76
2021/01/03 11:25:19;;;;;;;24.67;11.68;;;;;;;14.76;100.00;101277.31;5103144;28;20051;-75
2021/01/03 11:28:05;;;;;;;20.10;11.18;;;;;;;15.10;100.00;101279.09;5116623;28;20035;-76
2021/01/03 11:30:51;;;;;;;19.63;10.57;;;;;;;15.38;100.00;101280.09;5116307;28;20112;-75
2021/01/03 11:33:36;;;;;;;19.85;10.38;;;;;;;15.68;100.00;101290.66;5116584;28;20088;-74
2021/01/03 11:36:26;;;;;;;21.63;12.23;;;;;;;16.43;100.00;101295.41;5117142;28;20033;-77
2021/01/03 11:39:11;;;;;;;24.92;12.15;;;;;;;16.26;100.00;101287.97;5118368;28;20441;-74
2021/01/03 11:41:59;;;;;;;28.25;11.90;;;;;;;16.27;100.00;101289.69;5117037;28;20088;-74
2021/01/03 11:44:45;;;;;;;20.17;11.07;;;;;;;16.35;100.00;101287.66;5102795;28;20430;-74
2021/01/03 11:47:31;;;;;;;17.20;9.95;;;;;;;17.25;100.00;101292.56;5116895;28;20032;-74
2021/01/03 11:50:20;;;;;;;20.30;10.30;;;;;;;17.31;100.00;101299.41;5116447;28;20050;-73
2021/01/03 11:53:05;;;;;;;18.30;10.10;;;;;;;16.00;100.00;101308.19;5115540;28;20058;-74
2021/01/03 11:55:51;;;;;;;13.32;9.00;;;;;;;15.80;100.00;101308.78;5115633;28;20069;-74
2021/01/03 11:58:39;;;;;;;17.35;9.88;;;;;;;15.43;100.00;101291.41;5116099;28;20062;-74
2021/01/03 12:01:26;;;;;;;21.08;11.88;;;;;;;15.12;100.00;101286.06;5102929;27;20398;-73
2021/01/03 12:04:11;;;;;;;21.92;11.07;;;;;;;15.48;100.00;101282.44;5102342;28;20421;-74
2021/01/03 12:07:00;;;;;;;22.88;10.60;;;;;;;15.67;100.00;101288.91;5116171;28;20102;-75
2021/01/03 12:09:47;;;;;;;19.58;11.35;;;;;;;16.17;100.00;101292.69;5115986;28;20054;-74
2021/01/03 12:12:33;;;;;;;25.02;11.35;;;;;;;16.56;100.00;101289.66;5115607;28;20108;-73
2021/01/03 12:15:19;;;;;;;38.15;27.20;;;;;;;16.33;100.00;101309.78;5115221;28;20019;-74
2021/01/03 12:18:05;;;;;;;23.58;10.23;;;;;;;16.34;100.00;101315.03;5116371;28;20457;-74
2021/01/03 12:20:50;;;;;;;22.75;11.88;;;;;;;15.80;100.00;101313.19;5115121;28;20364;-73
2021/01/03 12:23:36;;;;;;;20.25;11.27;;;;;;;16.34;100.00;101304.47;5115177;28;20058;-74
2021/01/03 12:26:24;;;;;;;22.27;10.65;;;;;;;16.20;100.00;101311.94;5115738;28;20027;-74
2021/01/03 12:29:12;;;;;;;24.25;11.90;;;;;;;16.38;100.00;101310.50;5101922;28;20024;-73
2021/01/03 12:32:00;;;;;;;26.02;13.00;;;;;;;16.20;100.00;101304.00;5114964;28;20019;-75
2021/01/03 12:34:46;;;;;;;23.58;12.95;;;;;;;16.65;100.00;101296.44;5115857;28;20031;-74
2021/01/03 12:37:31;;;;;;;24.10;11.85;;;;;;;16.34;100.00;101298.28;5115005;28;20019;-75
2021/01/03 12:40:17;;;;;;;21.88;11.27;;;;;;;16.31;100.00;101301.06;5116196;28;20035;-74
2021/01/03 12:43:03;;;;;;;22.13;11.25;;;;;;;16.10;100.00;101304.34;5115476;28;20118;-73
2021/01/03 12:45:49;;;;;;;23.63;11.52;;;;;;;15.84;100.00;101301.63;5115341;28;20038;-74
2021/01/03 12:48:36;;;;;;;19.63;11.73;;;;;;;16.33;100.00;101304.50;5116149;28;20378;-74
2021/01/03 12:51:22;;;;;;;23.02;11.93;;;;;;;15.95;100.00;101307.47;5100067;28;20020;-74
2021/01/03 12:54:08;;;;;;;25.25;11.80;;;;;;;16.40;100.00;101304.25;5114055;28;20026;-74